Time;durP1;ratioP1;P1;durP2;ratioP2;P2;SDS_P1;SDS_P2;PMS_P1;PMS_P2;Temp;Humidity;BMP_temperature;BMP_pressure;BME280_temperature;BME280_humidity;BME280_pressure;Samples;Min_cycle;Max_cycle;Signal;HPM_P1;HPM_P2
2023/04/13 00:00:11;;;;;;;5.90;3.00;;;4.50;99.90;;;;;;4999939;28;20232;-79
2023/04/13 00:02:38;;;;;;;7.43;3.80;;;4.50;99.90;;;;;;5002973;28;20221;-79
2023/04/13 00:05:08;;;;;;;5.63;3.40;;;4.40;99.90;;;;;;4998405;28;20217;-79
2023/04/13 00:07:37;;;;;;;13.57;4.37;;;4.40;99.90;;;;;;5004594;28;20227;-79
2023/04/13 00:10:04;;;;;;;7.70;3.90;;;4.30;99.90;;;;;;4998215;28;20230;-78
2023/04/13 00:12:32;;;;;;;6.53;3.90;;;4.20;99.90;;;;;;5003858;28;20301;-78
2023/04/13 00:15:00;;;;;;;5.63;3.83;;;4.20;99.90;;;;;;5001518;28;20649;-79
2023/04/13 00:17:27;;;;;;;9.60;3.90;;;4.10;99.90;;;;;;4999814;28;20239;-78
2023/04/13 00:19:56;;;;;;;6.93;4.80;;;4.10;99.90;;;;;;5001984;28;20312;-78
2023/04/13 00:22:24;;;;;;;8.10;4.47;;;4.00;99.90;;;;;;5001863;28;20940;-78
2023/04/13 00:24:53;;;;;;;5.77;4.43;;;4.00;99.90;;;;;;4999317;28;20241;-79
2023/04/13 00:27:20;;;;;;;10.53;4.20;;;3.90;99.90;;;;;;4997122;28;20539;-78
2023/04/13 00:29:47;;;;;;;4.83;3.90;;;3.80;99.90;;;;;;5003465;28;20232;-78
2023/04/13 00:32:15;;;;;;;6.47;4.50;;;3.80;99.90;;;;;;5000430;28;20998;-78
2023/04/13 00:34:42;;;;;;;7.83;4.83;;;3.70;99.90;;;;;;5003894;28;20303;-78
2023/04/13 00:37:10;;;;;;;8.90;4.70;;;3.70;99.90;;;;;;5015515;28;20739;-78
2023/04/13 00:39:37;;;;;;;6.43;4.33;;;3.60;99.90;;;;;;5003146;28;20367;-78
2023/04/13 00:42:06;;;;;;;7.23;5.07;;;3.60;99.90;;;;;;5002723;28;20312;-79
2023/04/13 00:44:33;;;;;;;6.13;4.30;;;3.50;99.90;;;;;;5006795;28;20875;-79
2023/04/13 00:47:01;;;;;;;8.70;4.37;;;3.50;99.90;;;;;;5007483;28;20873;-79
2023/04/13 00:49:30;;;;;;;41.90;6.20;;;3.40;99.90;;;;;;5002469;28;20263;-79
2023/04/13 00:51:57;;;;;;;7.70;4.17;;;3.40;99.90;;;;;;5005332;28;20243;-79
2023/04/13 00:54:23;;;;;;;5.90;4.07;;;3.30;99.90;;;;;;5003267;28;25371;-79
2023/04/13 00:56:53;;;;;;;6.77;4.33;;;3.30;99.90;;;;;;5006514;28;20700;-79
2023/04/13 00:59:20;;;;;;;9.63;4.27;;;3.30;99.90;;;;;;5004560;28;20248;-79
2023/04/13 01:01:49;;;;;;;37.33;6.13;;;3.20;99.90;;;;;;5008130;28;20228;-80
2023/04/13 01:04:18;;;;;;;6.23;3.80;;;3.20;99.90;;;;;;5003626;28;20570;-80
2023/04/13 01:06:51;;;;;;;5.73;4.00;;;3.10;99.90;;;;;;5002238;28;20222;-79
2023/04/13 01:09:25;;;;;;;6.70;3.97;;;3.10;99.90;;;;;;5015812;28;20251;-78
2023/04/13 01:11:58;;;;;;;6.73;3.83;;;3.00;99.90;;;;;;5044883;23;20298;-79
2023/04/13 01:14:33;;;;;;;7.87;3.53;;;3.00;99.90;;;;;;5021641;28;20217;-78
2023/04/13 01:17:06;;;;;;;10.10;3.87;;;2.90;99.90;;;;;;5041323;28;20712;-78
2023/04/13 01:19:50;;;;;;;7.07;3.93;;;2.90;99.90;;;;;;5033588;28;20314;-78
2023/04/13 01:22:21;;;;;;;8.83;3.60;;;2.80;99.90;;;;;;5016971;28;20220;-77
2023/04/13 01:25:07;;;;;;;7.20;4.17;;;2.80;99.90;;;;;;5003578;28;20227;-78
2023/04/13 01:27:45;;;;;;;7.50;3.80;;;2.70;99.90;;;;;;5020744;28;20284;-78
2023/04/13 01:30:15;;;;;;;6.60;3.63;;;2.70;99.90;;;;;;5015102;28;20245;-78
2023/04/13 01:32:44;;;;;;;7.47;4.00;;;2.60;99.90;;;;;;5001317;28;20223;-78
2023/04/13 01:35:12;;;;;;;9.80;4.17;;;2.60;99.90;;;;;;5000291;28;20245;-79
2023/04/13 01:37:42;;;;;;;7.13;4.30;;;2.60;99.90;;;;;;5001128;28;20251;-79
2023/04/13 01:40:12;;;;;;;6.47;4.97;;;2.50;99.90;;;;;;5010877;28;20223;-79
2023/04/13 01:42:47;;;;;;;10.83;4.70;;;2.50;99.90;;;;;;5005372;28;20221;-79
2023/04/13 01:45:17;;;;;;;41.63;6.87;;;2.50;99.90;;;;;;5020716;28;20244;-78
2023/04/13 01:47:53;;;;;;;8.93;5.37;;;2.50;99.90;;;;;;5021232;28;20225;-80
2023/04/13 01:50:53;;;;;;;11.80;6.27;;;2.40;99.90;;;;;;4986999;28;20718;-81
2023/04/13 01:53:37;;;;;;;10.90;6.30;;;2.40;99.90;;;;;;5003864;28;20229;-81
2023/04/13 01:56:06;;;;;;;43.90;8.10;;;2.40;99.90;;;;;;5001945;28;20611;-81
2023/04/13 01:58:36;;;;;;;20.10;6.37;;;2.40;99.90;;;;;;5000447;28;20392;-81
2023/04/13 02:01:11;;;;;;;12.73;7.10;;;2.40;99.90;;;;;;4999642;28;20596;-81
2023/04/13 02:03:38;;;;;;;18.80;7.60;;;2.40;99.90;;;;;;5000494;28;20236;-80
2023/04/13 02:06:06;;;;;;;126.53;14.10;;;2.40;99.90;;;;;;5006032;28;20304;-80
2023/04/13 02:08:35;;;;;;;164.57;15.00;;;2.40;99.90;;;;;;5018618;28;20252;-80
2023/04/13 02:11:03;;;;;;;145.10;15.07;;;2.40;99.90;;;;;;5003907;28;20240;-80
2023/04/13 02:13:30;;;;;;;14.37;6.70;;;2.40;99.90;;;;;;4999081;28;20229;-80
2023/04/13 02:15:59;;;;;;;30.80;9.10;;;2.40;99.90;;;;;;5019510;28;20228;-80
2023/04/13 02:18:26;;;;;;;11.73;7.53;;;2.40;99.90;;;;;;4999987;28;20756;-81
2023/04/13 02:21:00;;;;;;;15.97;8.37;;;2.40;99.90;;;;;;5021145;28;20295;-80
2023/04/13 02:23:28;;;;;;;15.57;7.80;;;2.30;99.90;;;;;;5017734;28;20226;-81
2023/04/13 02:25:54;;;;;;;12.80;7.67;;;2.30;99.90;;;;;;5004947;28;20230;-80
2023/04/13 02:28:21;;;;;;;14.63;8.47;;;2.30;99.90;;;;;;4997267;28;20245;-81
2023/04/13 02:30:48;;;;;;;18.13;7.93;;;2.30;99.90;;;;;;5016368;28;20861;-80
2023/04/13 02:33:18;;;;;;;17.83;8.43;;;2.30;99.90;;;;;;5014261;28;20225;-81
2023/04/13 02:35:45;;;;;;;43.73;9.73;;;2.20;99.90;;;;;;5015361;28;20221;-80
2023/04/13 02:38:14;;;;;;;16.50;9.17;;;2.20;99.90;;;;;;4998456;28;20246;-81
2023/04/13 02:40:45;;;;;;;15.70;8.50;;;2.20;99.90;;;;;;5002862;28;20221;-80
2023/04/13 02:43:12;;;;;;;13.97;7.70;;;2.20;99.90;;;;;;5016048;28;20233;-80
2023/04/13 02:45:41;;;;;;;14.13;8.70;;;2.20;99.90;;;;;;4999962;28;20221;-80
2023/04/13 02:48:11;;;;;;;16.40;8.97;;;2.20;99.90;;;;;;4994883;28;20232;-82
2023/04/13 02:50:40;;;;;;;15.87;9.00;;;2.20;99.90;;;;;;5018307;28;20237;-81
2023/04/13 02:53:10;;;;;;;25.07;9.33;;;2.20;99.90;;;;;;5016152;28;20228;-81
2023/04/13 02:55:40;;;;;;;15.97;9.37;;;2.30;99.90;;;;;;4998994;28;20252;-80
2023/04/13 02:58:12;;;;;;;15.37;8.77;;;2.30;99.90;;;;;;5013184;28;20250;-80
2023/04/13 03:00:40;;;;;;;17.37;9.23;;;2.30;99.90;;;;;;5015311;28;20237;-80
2023/04/13 03:03:11;;;;;;;19.57;8.70;;;2.30;99.90;;;;;;5014662;28;20223;-80
2023/04/13 03:05:46;;;;;;;15.27;8.70;;;2.30;99.90;;;;;;4997643;28;20301;-79
2023/04/13 03:08:17;;;;;;;19.03;9.20;;;2.30;99.90;;;;;;5015868;28;20594;-78
2023/04/13 03:11:13;;;;;;;23.07;9.00;;;2.30;99.90;;;;;;4986654;28;20231;-80
2023/04/13 03:13:46;;;;;;;24.10;9.80;;;2.30;99.90;;;;;;5006578;28;20711;-80
2023/04/13 03:16:16;;;;;;;17.50;9.73;;;2.30;99.90;;;;;;5018917;28;20232;-80
2023/04/13 03:18:44;;;;;;;18.33;9.50;;;2.30;99.90;;;;;;5018754;28;20213;-80
2023/04/13 03:21:15;;;;;;;54.77;11.10;;;2.20;99.90;;;;;;5000593;28;20229;-80
2023/04/13 03:23:51;;;;;;;19.27;8.80;;;2.30;99.90;;;;;;5002459;28;20221;-80
2023/04/13 03:26:18;;;;;;;19.03;9.27;;;2.30;99.90;;;;;;5003996;28;20253;-81
2023/04/13 03:28:46;;;;;;;17.53;9.70;;;2.20;99.90;;;;;;5004080;28;20223;-81
2023/04/13 03:31:13;;;;;;;18.97;9.10;;;2.20;99.90;;;;;;5017948;28;20678;-81
2023/04/13 03:33:39;;;;;;;14.27;8.67;;;2.20;99.90;;;;;;5001012;28;20225;-81
2023/04/13 03:36:09;;;;;;;18.73;10.33;;;2.30;99.90;;;;;;5015197;28;20225;-82
2023/04/13 03:38:38;;;;;;;28.77;10.27;;;2.20;99.90;;;;;;5015349;28;20224;-80
2023/04/13 03:41:06;;;;;;;19.07;10.03;;;2.20;99.90;;;;;;5001952;28;20221;-80
2023/04/13 03:43:33;;;;;;;35.57;10.53;;;2.20;99.90;;;;;;4995661;28;20323;-80
2023/04/13 03:46:11;;;;;;;27.73;9.97;;;2.20;99.90;;;;;;5018958;28;20306;-80
2023/04/13 03:48:40;;;;;;;15.43;9.40;;;2.20;99.90;;;;;;5019321;28;20851;-79
2023/04/13 03:51:08;;;;;;;16.00;9.23;;;2.30;99.90;;;;;;5019189;28;20221;-80
2023/04/13 03:53:48;;;;;;;17.57;9.70;;;2.20;99.90;;;;;;5014257;28;20216;-82
2023/04/13 03:56:20;;;;;;;20.73;10.60;;;2.20;99.90;;;;;;5018723;28;20228;-81
2023/04/13 03:58:46;;;;;;;17.63;9.57;;;2.20;99.90;;;;;;5020253;28;20245;-82
2023/04/13 04:01:17;;;;;;;16.70;9.97;;;2.10;99.90;;;;;;5001261;28;20235;-79
2023/04/13 04:03:48;;;;;;;24.73;11.20;;;2.10;99.90;;;;;;5001281;28;20267;-80
2023/04/13 04:06:15;;;;;;;18.93;10.77;;;2.20;99.90;;;;;;5007586;28;20253;-81
2023/04/13 04:08:51;;;;;;;20.90;10.17;;;2.10;99.90;;;;;;5006259;28;20595;-79
2023/04/13 04:11:41;;;;;;;20.37;9.97;;;2.10;99.90;;;;;;5016917;28;20228;-80
2023/04/13 04:14:10;;;;;;;30.90;11.87;;;2.10;99.90;;;;;;5004302;28;20947;-79
2023/04/13 04:16:38;;;;;;;38.87;11.67;;;2.20;99.90;;;;;;4999048;28;20777;-80
2023/04/13 04:19:12;;;;;;;18.93;10.20;;;2.20;99.90;;;;;;5021735;28;21364;-80
2023/04/13 04:21:43;;;;;;;22.60;11.47;;;2.10;99.90;;;;;;5005143;28;20347;-82
2023/04/13 04:24:19;;;;;;;27.00;11.63;;;2.10;99.90;;;;;;4998556;28;20220;-83
2023/04/13 04:26:49;;;;;;;30.17;11.60;;;2.10;99.90;;;;;;5002376;28;20236;-82
2023/04/13 04:29:16;;;;;;;23.27;11.40;;;2.10;99.90;;;;;;5015731;28;20231;-81
2023/04/13 04:31:43;;;;;;;21.70;11.20;;;2.20;99.90;;;;;;5017953;28;20289;-80
2023/04/13 04:34:15;;;;;;;18.80;10.87;;;2.20;99.90;;;;;;4999909;28;20223;-86
2023/04/13 04:36:49;;;;;;;20.03;11.43;;;2.20;99.90;;;;;;5000403;28;20224;-80
2023/04/13 04:39:20;;;;;;;24.40;11.20;;;2.20;99.90;;;;;;5002822;28;20255;-81
2023/04/13 04:41:53;;;;;;;31.63;11.83;;;2.20;99.90;;;;;;4998723;28;20316;-81
2023/04/13 04:44:23;;;;;;;21.97;11.63;;;2.30;99.90;;;;;;4999931;28;20904;-82
2023/04/13 04:46:51;;;;;;;33.70;12.63;;;2.20;99.90;;;;;;5015614;28;20219;-81
2023/04/13 04:49:20;;;;;;;25.13;12.70;;;2.30;99.90;;;;;;5016692;28;20289;-82
2023/04/13 04:51:48;;;;;;;21.83;11.90;;;2.30;99.90;;;;;;5016524;28;20911;-82
2023/04/13 04:54:17;;;;;;;26.80;12.13;;;2.30;99.90;;;;;;5000568;28;20232;-81
2023/04/13 04:56:46;;;;;;;30.63;12.73;;;2.30;99.90;;;;;;5020080;28;20236;-81
2023/04/13 04:59:14;;;;;;;20.50;11.40;;;2.40;99.90;;;;;;5004615;28;20232;-81
2023/04/13 05:01:54;;;;;;;36.70;12.10;;;2.30;99.90;;;;;;5000670;28;20220;-81
2023/04/13 05:04:20;;;;;;;20.07;11.23;;;2.40;99.90;;;;;;5001000;28;20227;-82
2023/04/13 05:06:48;;;;;;;26.50;12.23;;;2.40;99.90;;;;;;5003876;28;20300;-82
2023/04/13 05:09:19;;;;;;;21.83;12.27;;;2.40;99.90;;;;;;5018242;28;21214;-81
2023/04/13 05:11:53;;;;;;;45.23;15.13;;;2.50;99.90;;;;;;4999131;28;20324;-82
2023/04/13 05:14:21;;;;;;;22.23;12.63;;;2.50;99.90;;;;;;5017816;28;20221;-83
2023/04/13 05:16:48;;;;;;;20.40;12.43;;;2.60;99.90;;;;;;5000891;28;20871;-84
2023/04/13 05:19:25;;;;;;;20.83;11.00;;;2.60;99.90;;;;;;5000646;28;20325;-83
2023/04/13 05:21:55;;;;;;;20.63;12.33;;;2.70;99.90;;;;;;5017371;28;20220;-83
2023/04/13 05:24:26;;;;;;;20.50;11.90;;;2.80;99.90;;;;;;4999325;28;20217;-83
2023/04/13 05:26:55;;;;;;;21.70;11.80;;;2.90;99.90;;;;;;5015911;28;20215;-84
2023/04/13 05:29:22;;;;;;;20.07;10.57;;;2.90;99.90;;;;;;5001720;28;20747;-84
2023/04/13 05:31:49;;;;;;;16.33;10.17;;;3.00;99.90;;;;;;5003247;28;20756;-84
2023/04/13 05:34:17;;;;;;;17.27;10.47;;;3.10;99.90;;;;;;5014643;28;20221;-85
2023/04/13 05:36:59;;;;;;;17.67;10.40;;;3.20;99.90;;;;;;4999514;28;20225;-85
2023/04/13 05:39:27;;;;;;;19.33;10.53;;;3.30;99.90;;;;;;5013736;28;20306;-86
2023/04/13 05:41:54;;;;;;;18.07;10.33;;;3.50;99.90;;;;;;5018165;28;20301;-84
2023/04/13 05:44:21;;;;;;;17.90;9.77;;;3.60;99.90;;;;;;5002908;28;20242;-85
2023/04/13 05:46:51;;;;;;;16.70;10.07;;;3.70;99.90;;;;;;5002623;28;20220;-85
2023/04/13 05:49:18;;;;;;;16.80;9.23;;;3.80;99.90;;;;;;5002454;28;20717;-85
2023/04/13 05:51:47;;;;;;;15.63;9.10;;;3.90;99.90;;;;;;5020895;28;20240;-84
2023/04/13 05:54:13;;;;;;;16.73;8.40;;;4.00;99.90;;;;;;4996101;28;20221;-85
2023/04/13 05:56:44;;;;;;;13.13;7.83;;;4.10;99.90;;;;;;5015399;28;20300;-85
2023/04/13 05:59:11;;;;;;;12.57;8.17;;;4.20;99.90;;;;;;4997194;28;20324;-85
2023/04/13 06:01:38;;;;;;;14.03;8.63;;;4.30;99.90;;;;;;4986301;28;20288;-85
2023/04/13 06:04:05;;;;;;;11.43;8.03;;;4.40;99.90;;;;;;5007436;28;20217;-84
2023/04/13 06:06:32;;;;;;;11.23;7.80;;;4.50;99.90;;;;;;5000432;28;20296;-84
2023/04/13 06:08:59;;;;;;;12.93;7.93;;;4.60;99.90;;;;;;4997897;28;20291;-85
2023/04/13 06:11:26;;;;;;;12.00;7.47;;;4.60;99.90;;;;;;5016893;28;20233;-84
2023/04/13 06:13:54;;;;;;;11.53;6.90;;;4.60;99.90;;;;;;5002050;28;20230;-84
2023/04/13 06:16:22;;;;;;;10.93;7.83;;;4.60;99.90;;;;;;5001900;28;20221;-85
2023/04/13 06:18:50;;;;;;;10.80;7.50;;;4.70;99.90;;;;;;5014444;28;20816;-84
2023/04/13 06:21:17;;;;;;;9.97;6.63;;;4.80;99.90;;;;;;5001052;28;20311;-82
2023/04/13 06:23:46;;;;;;;11.30;6.87;;;5.10;99.90;;;;;;5000596;28;20218;-81
2023/04/13 06:26:24;;;;;;;8.30;6.33;;;5.30;99.90;;;;;;4999274;28;20981;-82
2023/04/13 06:28:56;;;;;;;9.10;6.10;;;5.40;99.90;;;;;;5002464;28;20706;-82
2023/04/13 06:31:26;;;;;;;8.37;5.53;;;5.70;99.90;;;;;;5000965;28;20237;-82
2023/04/13 06:33:54;;;;;;;9.00;5.80;;;5.70;99.90;;;;;;4998039;28;20245;-86
2023/04/13 06:36:29;;;;;;;7.97;5.60;;;5.70;99.90;;;;;;5001347;28;21292;-85
2023/04/13 06:38:57;;;;;;;8.00;5.47;;;5.70;99.90;;;;;;5019631;28;20773;-85
2023/04/13 06:41:24;;;;;;;7.73;5.50;;;5.70;99.90;;;;;;5001699;28;20244;-82
2023/04/13 06:43:55;;;;;;;10.73;5.80;;;5.60;99.90;;;;;;4996751;28;20274;-83
2023/04/13 06:46:27;;;;;;;11.60;5.60;;;5.70;99.90;;;;;;5001633;28;20232;-80
2023/04/13 06:49:00;;;;;;;8.57;4.90;;;5.70;99.90;;;;;;5001341;28;20707;-80
2023/04/13 06:51:31;;;;;;;8.00;4.77;;;5.60;99.90;;;;;;5019896;28;20222;-80
2023/04/13 06:53:59;;;;;;;7.70;4.27;;;5.60;99.90;;;;;;5020388;28;20239;-80
2023/04/13 06:56:25;;;;;;;5.67;3.77;;;5.60;99.90;;;;;;5004504;28;20305;-80
2023/04/13 06:58:56;;;;;;;6.77;4.13;;;5.70;99.90;;;;;;5021993;28;20641;-79
2023/04/13 07:01:24;;;;;;;6.93;3.50;;;5.60;99.90;;;;;;5002634;28;20230;-80
2023/04/13 07:03:51;;;;;;;6.37;3.40;;;5.60;99.90;;;;;;5016774;28;20213;-79
2023/04/13 07:06:20;;;;;;;7.73;3.70;;;5.70;99.90;;;;;;5021185;28;20242;-80
2023/04/13 07:08:47;;;;;;;7.70;4.00;;;5.70;99.90;;;;;;5021709;28;20288;-80
2023/04/13 07:11:14;;;;;;;5.70;3.50;;;5.70;99.90;;;;;;4999797;28;20229;-79
2023/04/13 07:13:41;;;;;;;4.33;3.10;;;5.80;99.90;;;;;;5002292;28;20239;-80
2023/04/13 07:16:11;;;;;;;7.27;3.53;;;5.90;99.90;;;;;;5020575;28;20306;-79
2023/04/13 07:18:42;;;;;;;4.47;3.00;;;5.90;99.90;;;;;;5000277;28;20248;-79
2023/04/13 07:21:09;;;;;;;6.93;2.57;;;6.00;99.90;;;;;;5009190;28;20315;-79
2023/04/13 07:23:54;;;;;;;5.67;2.47;;;6.00;99.90;;;;;;5003672;28;20268;-79
2023/04/13 07:26:22;;;;;;;3.60;2.07;;;6.10;99.90;;;;;;5015369;28;20840;-80
2023/04/13 07:28:48;;;;;;;4.00;1.90;;;6.20;99.90;;;;;;5020843;28;20827;-79
2023/04/13 07:31:16;;;;;;;3.47;1.70;;;6.30;99.90;;;;;;5003811;28;20228;-80
2023/04/13 07:33:48;;;;;;;2.90;1.70;;;6.40;99.90;;;;;;5012341;28;20421;-80
2023/04/13 07:36:18;;;;;;;5.63;2.10;;;6.50;99.90;;;;;;5002912;28;20220;-79
2023/04/13 07:38:49;;;;;;;3.00;1.60;;;6.60;99.90;;;;;;5002874;28;20323;-79
2023/04/13 07:41:21;;;;;;;2.63;1.40;;;6.70;99.90;;;;;;5019868;28;20585;-80
2023/04/13 07:43:50;;;;;;;2.10;1.80;;;6.80;99.90;;;;;;5018592;28;20235;-81
2023/04/13 07:46:19;;;;;;;4.10;1.40;;;6.90;99.90;;;;;;5001257;28;20226;-80
2023/04/13 07:48:45;;;;;;;1.93;1.40;;;7.10;99.90;;;;;;5015228;28;20232;-81
2023/04/13 07:51:24;;;;;;;3.27;1.50;;;7.20;99.90;;;;;;5018477;28;20220;-81
2023/04/13 07:53:51;;;;;;;5.30;1.50;;;7.30;99.90;;;;;;5020216;28;20232;-81
2023/04/13 07:56:19;;;;;;;1.80;1.20;;;7.50;99.90;;;;;;5021032;28;20221;-79
2023/04/13 07:58:45;;;;;;;1.73;1.20;;;7.50;99.90;;;;;;5021569;28;20232;-80
2023/04/13 08:01:12;;;;;;;1.90;1.27;;;7.50;99.90;;;;;;5020446;28;20225;-80
2023/04/13 08:03:39;;;;;;;2.90;1.20;;;7.60;99.90;;;;;;5014151;28;20290;-80
2023/04/13 08:06:13;;;;;;;1.50;1.00;;;7.70;99.90;;;;;;5015882;28;20719;-81
2023/04/13 08:08:42;;;;;;;2.37;1.03;;;7.80;99.90;;;;;;5017971;28;20229;-79
2023/04/13 08:11:09;;;;;;;1.60;1.00;;;7.80;99.90;;;;;;5016822;28;20843;-80
2023/04/13 08:13:36;;;;;;;2.53;1.10;;;7.80;99.90;;;;;;4999768;28;20762;-81
2023/04/13 08:16:07;;;;;;;3.60;1.30;;;7.90;99.90;;;;;;5015421;28;20230;-81
2023/04/13 08:18:36;;;;;;;1.50;1.40;;;8.00;99.90;;;;;;5001896;28;20623;-80
2023/04/13 08:21:10;;;;;;;3.07;2.00;;;8.10;99.90;;;;;;4998665;28;20225;-81
2023/04/13 08:23:41;;;;;;;4.83;2.03;;;8.10;99.90;;;;;;4997960;28;21038;-80
2023/04/13 08:26:15;;;;;;;3.67;2.60;;;8.20;99.90;;;;;;5015863;28;20614;-81
2023/04/13 08:28:42;;;;;;;2.87;1.20;;;8.40;99.90;;;;;;5013531;28;20241;-81
2023/04/13 08:31:12;;;;;;;2.60;1.17;;;8.40;99.90;;;;;;5010782;28;20221;-81
2023/04/13 08:33:39;;;;;;;2.23;1.20;;;8.40;99.90;;;;;;4998020;28;20283;-80
2023/04/13 08:36:07;;;;;;;2.80;1.07;;;8.60;99.90;;;;;;5001328;28;20216;-81
2023/04/13 08:38:35;;;;;;;0.80;0.80;;;8.80;99.90;;;;;;4998043;28;20224;-81
2023/04/13 08:41:04;;;;;;;2.57;1.10;;;9.00;99.90;;;;;;5015718;28;20841;-81
2023/04/13 08:43:34;;;;;;;5.57;1.20;;;9.20;99.90;;;;;;4998378;28;20249;-80
2023/04/13 08:46:19;;;;;;;1.60;1.13;;;9.40;99.90;;;;;;4999313;28;20920;-80
2023/04/13 08:48:51;;;;;;;2.07;1.37;;;9.60;99.90;;;;;;5010618;28;20229;-81
2023/04/13 08:51:21;;;;;;;1.77;1.03;;;9.90;99.90;;;;;;5023680;28;20214;-80
2023/04/13 08:53:52;;;;;;;3.07;1.37;;;10.10;99.90;;;;;;5019912;28;20289;-81
2023/04/13 08:56:27;;;;;;;2.80;1.13;;;10.20;99.90;;;;;;5021123;28;20297;-81
2023/04/13 08:58:58;;;;;;;1.70;1.10;;;10.30;99.90;;;;;;5005554;28;20226;-81
2023/04/13 09:01:27;;;;;;;2.30;1.00;;;10.30;99.90;;;;;;5004586;28;20227;-80
2023/04/13 09:04:00;;;;;;;2.00;1.10;;;10.20;99.90;;;;;;5006817;28;20225;-80
2023/04/13 09:06:31;;;;;;;1.93;0.90;;;10.30;99.90;;;;;;5025255;28;20233;-80
2023/04/13 09:08:59;;;;;;;1.60;1.00;;;10.30;99.90;;;;;;5008076;28;20209;-80
2023/04/13 09:11:30;;;;;;;2.40;1.00;;;10.30;99.90;;;;;;5008182;28;20624;-80
2023/04/13 09:13:57;;;;;;;1.43;1.27;;;10.40;99.90;;;;;;5007018;28;20311;-80
2023/04/13 09:16:24;;;;;;;1.13;1.00;;;10.30;99.90;;;;;;5021243;28;20234;-80
2023/04/13 09:18:56;;;;;;;2.93;1.07;;;10.30;99.90;;;;;;5021775;28;20245;-80
2023/04/13 09:21:38;;;;;;;2.87;1.07;;;10.20;99.90;;;;;;5003854;28;20966;-81
2023/04/13 09:24:05;;;;;;;1.50;0.97;;;10.20;99.90;;;;;;5022899;28;20223;-80
2023/04/13 09:26:41;;;;;;;1.37;0.93;;;10.20;99.90;;;;;;5003541;28;20235;-80
2023/04/13 09:29:10;;;;;;;2.10;0.90;;;10.20;99.90;;;;;;5004104;28;20758;-80
2023/04/13 09:31:38;;;;;;;1.83;1.07;;;10.20;99.90;;;;;;5018724;28;20297;-80
2023/04/13 09:34:05;;;;;;;1.20;1.10;;;10.30;99.90;;;;;;5018924;28;20223;-80
2023/04/13 09:36:32;;;;;;;2.80;1.07;;;10.40;99.90;;;;;;5004191;28;21036;-80
2023/04/13 09:38:59;;;;;;;1.07;0.90;;;10.50;99.90;;;;;;5020018;28;20887;-80
2023/04/13 09:41:33;;;;;;;3.27;1.30;;;10.80;99.90;;;;;;5002620;28;20719;-80
2023/04/13 09:44:16;;;;;;;2.83;2.00;;;11.00;99.90;;;;;;5002160;28;20225;-80
2023/04/13 09:46:44;;;;;;;2.00;1.10;;;11.30;99.90;;;;;;5002759;28;20232;-82
2023/04/13 09:49:14;;;;;;;2.80;1.40;;;11.60;99.90;;;;;;5006824;28;20342;-79
2023/04/13 09:51:41;;;;;;;2.60;1.10;;;11.90;99.90;;;;;;5008329;28;20294;-80
2023/04/13 09:54:08;;;;;;;1.40;1.00;;;12.30;99.90;;;;;;5002475;28;20234;-79
2023/04/13 09:56:45;;;;;;;1.43;0.97;;;12.60;99.90;;;;;;5019360;28;20239;-80
2023/04/13 09:59:14;;;;;;;2.90;1.00;;;12.80;99.60;;;;;;5005180;28;20225;-80
2023/04/13 10:01:41;;;;;;;2.17;0.87;;;13.00;97.70;;;;;;4999482;28;20342;-81
2023/04/13 10:04:09;;;;;;;2.17;0.90;;;13.00;99.20;;;;;;5005526;28;21214;-80
2023/04/13 10:06:39;;;;;;;3.47;0.90;;;13.20;99.50;;;;;;4997758;28;20677;-81
2023/04/13 10:09:06;;;;;;;1.43;0.70;;;13.40;98.30;;;;;;5017697;28;20314;-81
2023/04/13 10:11:37;;;;;;;1.43;0.87;;;13.60;99.10;;;;;;5004163;28;20229;-81
2023/04/13 10:14:08;;;;;;;1.87;1.00;;;13.90;96.90;;;;;;5001057;28;20223;-81
2023/04/13 10:17:15;;;;;;;1.97;1.20;;;14.00;95.80;;;;;;5019231;28;20227;-80
2023/04/13 10:19:45;;;;;;;1.77;0.80;;;14.20;95.50;;;;;;5001261;28;20289;-81
2023/04/13 10:22:15;;;;;;;1.67;0.90;;;14.50;97.50;;;;;;5005598;28;20571;-80
2023/04/13 10:24:43;;;;;;;1.27;0.70;;;14.70;95.60;;;;;;4999666;28;20707;-80
2023/04/13 10:27:15;;;;;;;2.57;0.80;;;14.80;95.00;;;;;;5005404;28;20224;-80
2023/04/13 10:29:45;;;;;;;2.87;0.77;;;15.00;92.90;;;;;;5003482;28;20925;-80
2023/04/13 10:32:22;;;;;;;1.10;0.70;;;15.20;94.90;;;;;;5006253;28;20226;-80
2023/04/13 10:34:49;;;;;;;1.40;0.70;;;15.40;94.00;;;;;;5006249;28;20709;-80
2023/04/13 10:37:18;;;;;;;2.37;0.90;;;15.50;92.90;;;;;;5006986;28;20264;-80
2023/04/13 10:39:45;;;;;;;1.30;0.93;;;15.60;93.70;;;;;;5001190;28;21175;-81
2023/04/13 10:42:12;;;;;;;1.47;0.80;;;15.80;93.20;;;;;;5001334;28;20235;-80
2023/04/13 10:44:43;;;;;;;3.17;1.20;;;15.80;91.60;;;;;;5003500;28;20884;-80
2023/04/13 10:47:10;;;;;;;2.83;1.10;;;15.90;91.70;;;;;;5018293;28;20733;-81
2023/04/13 10:49:41;;;;;;;1.47;0.90;;;16.00;93.30;;;;;;4998141;28;20229;-80
2023/04/13 10:52:10;;;;;;;2.33;1.13;;;16.10;92.80;;;;;;5005935;28;20306;-80
2023/04/13 10:54:39;;;;;;;2.77;0.93;;;16.20;92.50;;;;;;5014514;28;20280;-80
2023/04/13 10:57:07;;;;;;;2.10;1.00;;;16.30;91.20;;;;;;5004037;28;20241;-80
2023/04/13 10:59:39;;;;;;;1.47;0.97;;;16.40;92.30;;;;;;5004567;28;20235;-80
2023/04/13 11:02:10;;;;;;;1.53;0.97;;;16.60;92.40;;;;;;5002450;28;20225;-80
2023/04/13 11:04:39;;;;;;;1.30;1.10;;;16.70;92.20;;;;;;5006505;28;20328;-79
2023/04/13 11:07:07;;;;;;;2.37;1.30;;;16.80;92.10;;;;;;4999215;28;20963;-80
2023/04/13 11:09:37;;;;;;;1.53;0.80;;;17.00;91.10;;;;;;5017163;28;20312;-79
2023/04/13 11:12:06;;;;;;;3.03;0.90;;;17.00;89.50;;;;;;5019746;28;20617;-80
2023/04/13 11:14:34;;;;;;;1.77;0.70;;;17.20;90.40;;;;;;4997041;28;20257;-81
2023/04/13 11:17:01;;;;;;;1.50;0.70;;;17.30;89.80;;;;;;4999925;28;20481;-80
2023/04/13 11:19:29;;;;;;;1.67;0.60;;;17.40;90.30;;;;;;5017421;28;20236;-80
2023/04/13 11:21:58;;;;;;;1.33;0.63;;;17.50;90.70;;;;;;5020186;28;20229;-80
2023/04/13 11:24:32;;;;;;;1.10;0.70;;;17.60;90.20;;;;;;5000073;28;20233;-81
2023/04/13 11:26:59;;;;;;;1.17;0.90;;;17.80;88.40;;;;;;5000417;28;20222;-81
2023/04/13 11:29:26;;;;;;;1.77;1.00;;;18.00;89.60;;;;;;5003187;28;20226;-80
2023/04/13 11:31:52;;;;;;;1.10;0.87;;;18.10;88.20;;;;;;5002210;28;20244;-80
2023/04/13 11:34:27;;;;;;;1.90;0.90;;;18.10;88.10;;;;;;5004796;28;20251;-80
2023/04/13 11:37:04;;;;;;;2.63;1.00;;;18.00;82.70;;;;;;5000998;28;20891;-81
2023/04/13 11:39:31;;;;;;;1.77;0.90;;;18.00;87.50;;;;;;5002494;28;20236;-80
2023/04/13 11:42:05;;;;;;;1.73;0.80;;;18.00;85.00;;;;;;5000370;28;20236;-80
2023/04/13 11:44:34;;;;;;;1.47;1.10;;;18.00;84.10;;;;;;5004482;28;20783;-80
2023/04/13 11:47:02;;;;;;;1.33;0.80;;;17.80;81.10;;;;;;5002744;28;20304;-80
2023/04/13 11:49:29;;;;;;;2.07;1.00;;;17.50;80.40;;;;;;4995341;28;20239;-80
2023/04/13 11:51:56;;;;;;;1.53;0.70;;;17.30;80.50;;;;;;5019263;28;20231;-80
2023/04/13 11:54:27;;;;;;;1.50;0.77;;;17.10;84.00;;;;;;5002228;28;20242;-80
2023/04/13 11:56:54;;;;;;;1.53;0.97;;;17.00;82.00;;;;;;5002362;28;20259;-80
2023/04/13 11:59:24;;;;;;;1.10;0.90;;;16.90;80.30;;;;;;5002081;28;20276;-80
2023/04/13 12:01:51;;;;;;;1.23;0.90;;;16.60;79.30;;;;;;5006028;28;20228;-80
2023/04/13 12:04:17;;;;;;;1.80;0.90;;;16.50;82.40;;;;;;5000831;28;20256;-80
2023/04/13 12:06:46;;;;;;;1.93;1.00;;;16.50;84.60;;;;;;5000127;28;21696;-80
2023/04/13 12:09:13;;;;;;;2.23;0.90;;;16.20;83.20;;;;;;5002187;28;20252;-80
2023/04/13 12:11:42;;;;;;;1.10;0.80;;;16.10;83.70;;;;;;5017411;28;20254;-80
2023/04/13 12:14:19;;;;;;;1.43;1.10;;;16.00;86.00;;;;;;5016812;28;20254;-80
2023/04/13 12:16:48;;;;;;;1.63;1.00;;;15.90;83.70;;;;;;4988673;28;20238;-80
2023/04/13 12:19:20;;;;;;;1.10;1.00;;;15.80;83.90;;;;;;5000953;28;20261;-80
2023/04/13 12:21:51;;;;;;;1.43;0.97;;;15.60;83.70;;;;;;4993702;28;20235;-81
2023/04/13 12:24:18;;;;;;;3.20;1.27;;;15.30;84.00;;;;;;5002391;28;20642;-80
2023/04/13 12:26:46;;;;;;;2.77;1.10;;;15.20;84.60;;;;;;5009889;28;20226;-80
2023/04/13 12:29:12;;;;;;;1.53;1.20;;;15.20;87.60;;;;;;5015038;28;20760;-80
2023/04/13 12:31:39;;;;;;;1.90;1.20;;;15.20;86.40;;;;;;5006977;28;20259;-80
2023/04/13 12:34:08;;;;;;;1.50;1.10;;;15.20;87.40;;;;;;5004822;28;20226;-80
2023/04/13 12:36:35;;;;;;;2.20;0.97;;;15.30;87.60;;;;;;5007584;28;20223;-80
2023/04/13 12:39:03;;;;;;;1.37;1.00;;;15.20;86.30;;;;;;5020270;28;20795;-80
2023/04/13 12:41:30;;;;;;;3.23;1.40;;;15.40;86.70;;;;;;5023587;28;20261;-81
2023/04/13 12:43:58;;;;;;;2.07;0.93;;;15.50;85.60;;;;;;5019299;28;20235;-80
2023/04/13 12:46:25;;;;;;;2.03;1.63;;;15.50;83.70;;;;;;5006115;28;20237;-81
2023/04/13 12:48:52;;;;;;;1.07;0.93;;;15.70;86.60;;;;;;5007528;28;20229;-81
2023/04/13 12:51:22;;;;;;;2.17;1.60;;;15.50;84.30;;;;;;5008065;28;20231;-81
2023/04/13 12:53:49;;;;;;;2.37;1.20;;;15.40;84.20;;;;;;5004076;28;20727;-81
2023/04/13 12:56:16;;;;;;;1.57;1.00;;;15.40;85.40;;;;;;5024105;28;20224;-81
2023/04/13 12:58:42;;;;;;;1.10;0.90;;;15.20;84.60;;;;;;5008696;28;20225;-81
2023/04/13 13:01:12;;;;;;;2.73;0.90;;;15.30;87.10;;;;;;5016266;28;20229;-81